sensor_id;sensor_type;location;lat;lon;timestamp;P1;durP1;ratioP1;P2;durP2;ratioP2
6878;SDS011;3478;51.462;7.338;2023-03-23T00:03:21;3.47;;;3.27;;
6878;SDS011;3478;51.462;7.338;2023-03-23T00:08:24;4.00;;;3.10;;
6878;SDS011;3478;51.462;7.338;2023-03-23T00:13:28;4.30;;;3.90;;
6878;SDS011;3478;51.462;7.338;2023-03-23T00:18:30;3.37;;;3.07;;
6878;SDS011;3478;51.462;7.338;2023-03-23T00:23:35;2.60;;;2.03;;
6878;SDS011;3478;51.462;7.338;2023-03-23T00:28:39;2.57;;;2.33;;
6878;SDS011;3478;51.462;7.338;2023-03-23T00:33:41;3.10;;;2.10;;
6878;SDS011;3478;51.462;7.338;2023-03-23T00:38:43;2.73;;;2.23;;
6878;SDS011;3478;51.462;7.338;2023-03-23T00:43:48;4.30;;;1.90;;
6878;SDS011;3478;51.462;7.338;2023-03-23T00:48:51;3.30;;;1.80;;
6878;SDS011;3478;51.462;7.338;2023-03-23T00:53:53;2.20;;;2.00;;
6878;SDS011;3478;51.462;7.338;2023-03-23T00:58:56;2.03;;;1.83;;
6878;SDS011;3478;51.462;7.338;2023-03-23T01:03:58;1.67;;;1.57;;
6878;SDS011;3478;51.462;7.338;2023-03-23T01:09:04;2.23;;;2.00;;
6878;SDS011;3478;51.462;7.338;2023-03-23T01:14:09;2.03;;;1.63;;
6878;SDS011;3478;51.462;7.338;2023-03-23T01:19:11;3.27;;;1.43;;
6878;SDS011;3478;51.462;7.338;2023-03-23T01:24:13;1.63;;;1.53;;
6878;SDS011;3478;51.462;7.338;2023-03-23T01:29:16;2.83;;;1.50;;
6878;SDS011;3478;51.462;7.338;2023-03-23T01:34:18;2.30;;;1.53;;
6878;SDS011;3478;51.462;7.338;2023-03-23T01:39:20;5.73;;;2.50;;
6878;SDS011;3478;51.462;7.338;2023-03-23T01:50:03;2.23;;;1.40;;
6878;SDS011;3478;51.462;7.338;2023-03-23T01:55:06;2.27;;;1.60;;
6878;SDS011;3478;51.462;7.338;2023-03-23T02:00:09;2.07;;;1.30;;
6878;SDS011;3478;51.462;7.338;2023-03-23T02:05:17;2.50;;;1.33;;
6878;SDS011;3478;51.462;7.338;2023-03-23T02:10:23;1.83;;;1.73;;
6878;SDS011;3478;51.462;7.338;2023-03-23T02:15:25;3.07;;;1.17;;
6878;SDS011;3478;51.462;7.338;2023-03-23T02:20:38;9.80;;;1.33;;
6878;SDS011;3478;51.462;7.338;2023-03-23T02:26:03;1.23;;;1.07;;
6878;SDS011;3478;51.462;7.338;2023-03-23T02:31:22;2.90;;;1.70;;
6878;SDS011;3478;51.462;7.338;2023-03-23T02:36:47;1.30;;;1.20;;
6878;SDS011;3478;51.462;7.338;2023-03-23T02:41:58;1.97;;;1.77;;
6878;SDS011;3478;51.462;7.338;2023-03-23T02:47:04;1.60;;;1.50;;
6878;SDS011;3478;51.462;7.338;2023-03-23T02:52:11;2.37;;;1.60;;
6878;SDS011;3478;51.462;7.338;2023-03-23T02:57:17;2.73;;;1.50;;
6878;SDS011;3478;51.462;7.338;2023-03-23T03:02:20;4.90;;;1.90;;
6878;SDS011;3478;51.462;7.338;2023-03-23T03:12:51;1.90;;;1.67;;
6878;SDS011;3478;51.462;7.338;2023-03-23T03:17:59;1.70;;;1.60;;
6878;SDS011;3478;51.462;7.338;2023-03-23T03:23:09;2.97;;;2.10;;
6878;SDS011;3478;51.462;7.338;2023-03-23T03:28:14;1.20;;;1.10;;
6878;SDS011;3478;51.462;7.338;2023-03-23T03:33:21;2.20;;;2.00;;
6878;SDS011;3478;51.462;7.338;2023-03-23T03:38:26;1.67;;;1.53;;
6878;SDS011;3478;51.462;7.338;2023-03-23T03:43:28;1.83;;;1.40;;
6878;SDS011;3478;51.462;7.338;2023-03-23T03:48:30;1.40;;;1.30;;
6878;SDS011;3478;51.462;7.338;2023-03-23T03:53:34;2.00;;;1.40;;
6878;SDS011;3478;51.462;7.338;2023-03-23T03:58:36;1.30;;;1.13;;
6878;SDS011;3478;51.462;7.338;2023-03-23T04:03:38;1.53;;;1.23;;
6878;SDS011;3478;51.462;7.338;2023-03-23T04:08:41;4.07;;;2.13;;
6878;SDS011;3478;51.462;7.338;2023-03-23T04:13:44;1.07;;;0.70;;
6878;SDS011;3478;51.462;7.338;2023-03-23T04:18:46;1.10;;;0.87;;
6878;SDS011;3478;51.462;7.338;2023-03-23T04:23:50;1.93;;;1.10;;
6878;SDS011;3478;51.462;7.338;2023-03-23T04:28:53;1.43;;;1.00;;
6878;SDS011;3478;51.462;7.338;2023-03-23T04:33:55;1.70;;;1.07;;
6878;SDS011;3478;51.462;7.338;2023-03-23T04:39:01;2.50;;;1.00;;
6878;SDS011;3478;51.462;7.338;2023-03-23T04:44:07;2.00;;;1.43;;
6878;SDS011;3478;51.462;7.338;2023-03-23T04:49:09;1.47;;;1.37;;
6878;SDS011;3478;51.462;7.338;2023-03-23T04:54:12;2.23;;;1.27;;
6878;SDS011;3478;51.462;7.338;2023-03-23T04:59:14;3.80;;;1.17;;
6878;SDS011;3478;51.462;7.338;2023-03-23T05:04:16;1.30;;;1.10;;
6878;SDS011;3478;51.462;7.338;2023-03-23T05:09:19;2.17;;;1.60;;
6878;SDS011;3478;51.462;7.338;2023-03-23T05:14:21;1.13;;;0.80;;
6878;SDS011;3478;51.462;7.338;2023-03-23T05:19:23;0.90;;;0.70;;
6878;SDS011;3478;51.462;7.338;2023-03-23T05:24:26;1.47;;;1.37;;
6878;SDS011;3478;51.462;7.338;2023-03-23T05:29:31;1.00;;;0.80;;
6878;SDS011;3478;51.462;7.338;2023-03-23T05:34:33;1.13;;;0.77;;
6878;SDS011;3478;51.462;7.338;2023-03-23T05:39:37;1.53;;;1.43;;
6878;SDS011;3478;51.462;7.338;2023-03-23T05:44:39;1.23;;;1.10;;
6878;SDS011;3478;51.462;7.338;2023-03-23T05:49:41;1.03;;;0.80;;
6878;SDS011;3478;51.462;7.338;2023-03-23T05:54:45;1.17;;;1.00;;
6878;SDS011;3478;51.462;7.338;2023-03-23T05:59:47;2.10;;;1.17;;
6878;SDS011;3478;51.462;7.338;2023-03-23T06:04:49;1.90;;;1.07;;
6878;SDS011;3478;51.462;7.338;2023-03-23T06:09:59;1.17;;;1.07;;
6878;SDS011;3478;51.462;7.338;2023-03-23T06:15:01;1.40;;;1.30;;
6878;SDS011;3478;51.462;7.338;2023-03-23T06:20:04;4.97;;;0.93;;
6878;SDS011;3478;51.462;7.338;2023-03-23T06:25:11;1.90;;;1.57;;
6878;SDS011;3478;51.462;7.338;2023-03-23T06:30:13;1.27;;;1.10;;
6878;SDS011;3478;51.462;7.338;2023-03-23T06:35:15;1.60;;;1.50;;
6878;SDS011;3478;51.462;7.338;2023-03-23T06:40:19;1.60;;;1.17;;
6878;SDS011;3478;51.462;7.338;2023-03-23T06:45:21;1.67;;;1.10;;
6878;SDS011;3478;51.462;7.338;2023-03-23T06:50:23;1.83;;;1.20;;
6878;SDS011;3478;51.462;7.338;2023-03-23T06:55:27;1.77;;;1.23;;
6878;SDS011;3478;51.462;7.338;2023-03-23T07:00:29;2.47;;;1.00;;
6878;SDS011;3478;51.462;7.338;2023-03-23T07:05:32;1.40;;;1.20;;
6878;SDS011;3478;51.462;7.338;2023-03-23T07:10:35;3.87;;;1.10;;
6878;SDS011;3478;51.462;7.338;2023-03-23T07:15:38;1.30;;;1.20;;
6878;SDS011;3478;51.462;7.338;2023-03-23T07:20:40;1.40;;;1.30;;
6878;SDS011;3478;51.462;7.338;2023-03-23T07:25:43;3.80;;;0.83;;
6878;SDS011;3478;51.462;7.338;2023-03-23T07:30:46;3.90;;;1.00;;
6878;SDS011;3478;51.462;7.338;2023-03-23T07:35:48;0.90;;;0.70;;
6878;SDS011;3478;51.462;7.338;2023-03-23T07:40:51;3.93;;;1.33;;
6878;SDS011;3478;51.462;7.338;2023-03-23T07:45:53;1.10;;;0.80;;
6878;SDS011;3478;51.462;7.338;2023-03-23T07:50:55;1.20;;;0.73;;
6878;SDS011;3478;51.462;7.338;2023-03-23T07:55:58;1.10;;;0.90;;
6878;SDS011;3478;51.462;7.338;2023-03-23T08:01:00;1.27;;;0.70;;
6878;SDS011;3478;51.462;7.338;2023-03-23T08:06:03;10.07;;;0.83;;
6878;SDS011;3478;51.462;7.338;2023-03-23T08:11:07;2.70;;;1.07;;
6878;SDS011;3478;51.462;7.338;2023-03-23T08:16:09;2.33;;;1.40;;
6878;SDS011;3478;51.462;7.338;2023-03-23T08:21:11;2.50;;;0.90;;
6878;SDS011;3478;51.462;7.338;2023-03-23T08:26:15;2.70;;;1.00;;
6878;SDS011;3478;51.462;7.338;2023-03-23T08:31:17;2.27;;;1.07;;
6878;SDS011;3478;51.462;7.338;2023-03-23T08:36:19;4.50;;;0.80;;
6878;SDS011;3478;51.462;7.338;2023-03-23T08:41:22;3.87;;;0.80;;
6878;SDS011;3478;51.462;7.338;2023-03-23T08:46:25;1.30;;;1.00;;
6878;SDS011;3478;51.462;7.338;2023-03-23T08:51:27;1.53;;;0.87;;
6878;SDS011;3478;51.462;7.338;2023-03-23T08:56:30;1.47;;;1.33;;
6878;SDS011;3478;51.462;7.338;2023-03-23T09:01:32;6.00;;;0.93;;
6878;SDS011;3478;51.462;7.338;2023-03-23T09:06:34;2.13;;;0.70;;
6878;SDS011;3478;51.462;7.338;2023-03-23T09:11:38;1.60;;;0.77;;
6878;SDS011;3478;51.462;7.338;2023-03-23T09:16:40;3.60;;;0.80;;
6878;SDS011;3478;51.462;7.338;2023-03-23T09:21:42;1.90;;;0.90;;
6878;SDS011;3478;51.462;7.338;2023-03-23T09:26:46;1.40;;;0.63;;
6878;SDS011;3478;51.462;7.338;2023-03-23T09:31:48;2.47;;;0.90;;
6878;SDS011;3478;51.462;7.338;2023-03-23T09:36:50;2.37;;;1.23;;
6878;SDS011;3478;51.462;7.338;2023-03-23T09:42:02;2.47;;;1.17;;
6878;SDS011;3478;51.462;7.338;2023-03-23T09:47:13;1.37;;;0.90;;
6878;SDS011;3478;51.462;7.338;2023-03-23T09:52:20;2.40;;;0.80;;
6878;SDS011;3478;51.462;7.338;2023-03-23T09:57:25;4.03;;;1.03;;
6878;SDS011;3478;51.462;7.338;2023-03-23T10:02:33;6.10;;;1.10;;
6878;SDS011;3478;51.462;7.338;2023-03-23T10:07:40;3.53;;;1.40;;
6878;SDS011;3478;51.462;7.338;2023-03-23T10:12:45;1.77;;;0.70;;
6878;SDS011;3478;51.462;7.338;2023-03-23T10:17:52;3.70;;;1.37;;
6878;SDS011;3478;51.462;7.338;2023-03-23T10:23:02;2.53;;;1.10;;
6878;SDS011;3478;51.462;7.338;2023-03-23T10:28:15;4.00;;;1.00;;
6878;SDS011;3478;51.462;7.338;2023-03-23T10:33:23;9.40;;;1.33;;
6878;SDS011;3478;51.462;7.338;2023-03-23T10:38:33;1.60;;;0.80;;
6878;SDS011;3478;51.462;7.338;2023-03-23T10:43:40;3.30;;;0.80;;
6878;SDS011;3478;51.462;7.338;2023-03-23T10:48:43;3.03;;;1.20;;
6878;SDS011;3478;51.462;7.338;2023-03-23T10:53:49;1.97;;;0.60;;
6878;SDS011;3478;51.462;7.338;2023-03-23T10:58:54;1.77;;;0.50;;
6878;SDS011;3478;51.462;7.338;2023-03-23T11:03:56;0.80;;;0.50;;
6878;SDS011;3478;51.462;7.338;2023-03-23T11:09:01;0.80;;;0.60;;
6878;SDS011;3478;51.462;7.338;2023-03-23T11:14:16;1.50;;;1.10;;
6878;SDS011;3478;51.462;7.338;2023-03-23T11:19:24;2.90;;;1.60;;
6878;SDS011;3478;51.462;7.338;2023-03-23T11:24:27;2.47;;;1.97;;
6878;SDS011;3478;51.462;7.338;2023-03-23T11:29:31;2.10;;;1.90;;
6878;SDS011;3478;51.462;7.338;2023-03-23T11:34:33;3.17;;;2.87;;
6878;SDS011;3478;51.462;7.338;2023-03-23T11:39:46;4.10;;;3.80;;
6878;SDS011;3478;51.462;7.338;2023-03-23T11:44:50;5.03;;;3.67;;
6878;SDS011;3478;51.462;7.338;2023-03-23T11:49:53;6.73;;;4.60;;
6878;SDS011;3478;51.462;7.338;2023-03-23T11:55:03;5.23;;;4.73;;
6878;SDS011;3478;51.462;7.338;2023-03-23T12:00:16;4.30;;;3.90;;
6878;SDS011;3478;51.462;7.338;2023-03-23T12:05:34;2.37;;;2.13;;
6878;SDS011;3478;51.462;7.338;2023-03-23T12:10:46;2.57;;;1.97;;
6878;SDS011;3478;51.462;7.338;2023-03-23T12:16:00;5.00;;;1.63;;
6878;SDS011;3478;51.462;7.338;2023-03-23T12:21:12;1.50;;;0.80;;
6878;SDS011;3478;51.462;7.338;2023-03-23T12:26:23;1.67;;;1.10;;
6878;SDS011;3478;51.462;7.338;2023-03-23T12:31:32;2.43;;;0.60;;
6878;SDS011;3478;51.462;7.338;2023-03-23T12:36:43;1.77;;;0.70;;
6878;SDS011;3478;51.462;7.338;2023-03-23T12:41:54;5.23;;;1.07;;
6878;SDS011;3478;51.462;7.338;2023-03-23T12:47:11;3.13;;;1.17;;
6878;SDS011;3478;51.462;7.338;2023-03-23T12:52:25;1.00;;;0.80;;
6878;SDS011;3478;51.462;7.338;2023-03-23T12:57:34;1.50;;;0.80;;
6878;SDS011;3478;51.462;7.338;2023-03-23T13:02:41;1.53;;;1.03;;
6878;SDS011;3478;51.462;7.338;2023-03-23T13:07:46;1.90;;;1.70;;
6878;SDS011;3478;51.462;7.338;2023-03-23T13:12:51;2.23;;;1.17;;
6878;SDS011;3478;51.462;7.338;2023-03-23T13:17:57;6.70;;;1.70;;
6878;SDS011;3478;51.462;7.338;2023-03-23T13:23:05;2.83;;;2.17;;
6878;SDS011;3478;51.462;7.338;2023-03-23T13:28:13;7.57;;;1.70;;
6878;SDS011;3478;51.462;7.338;2023-03-23T13:33:19;1.90;;;1.57;;
6878;SDS011;3478;51.462;7.338;2023-03-23T13:38:23;1.60;;;1.40;;
6878;SDS011;3478;51.462;7.338;2023-03-23T13:43:29;1.67;;;1.00;;
6878;SDS011;3478;51.462;7.338;2023-03-23T13:48:40;1.57;;;1.07;;
6878;SDS011;3478;51.462;7.338;2023-03-23T13:53:47;1.63;;;1.03;;
6878;SDS011;3478;51.462;7.338;2023-03-23T13:58:49;2.80;;;0.93;;
6878;SDS011;3478;51.462;7.338;2023-03-23T14:03:56;3.70;;;1.97;;
6878;SDS011;3478;51.462;7.338;2023-03-23T14:09:04;3.80;;;2.07;;
6878;SDS011;3478;51.462;7.338;2023-03-23T14:14:13;2.50;;;2.27;;
6878;SDS011;3478;51.462;7.338;2023-03-23T14:19:21;3.70;;;3.40;;
6878;SDS011;3478;51.462;7.338;2023-03-23T14:24:26;4.03;;;3.30;;
6878;SDS011;3478;51.462;7.338;2023-03-23T14:29:30;4.67;;;4.27;;
6878;SDS011;3478;51.462;7.338;2023-03-23T14:34:34;4.63;;;4.23;;
6878;SDS011;3478;51.462;7.338;2023-03-23T14:39:36;4.90;;;4.03;;
6878;SDS011;3478;51.462;7.338;2023-03-23T14:44:40;5.07;;;4.50;;
6878;SDS011;3478;51.462;7.338;2023-03-23T14:49:45;4.63;;;4.23;;
6878;SDS011;3478;51.462;7.338;2023-03-23T14:54:47;4.63;;;4.23;;
6878;SDS011;3478;51.462;7.338;2023-03-23T14:59:49;3.80;;;3.40;;
6878;SDS011;3478;51.462;7.338;2023-03-23T15:04:53;3.20;;;2.57;;
6878;SDS011;3478;51.462;7.338;2023-03-23T15:09:58;2.70;;;2.50;;
6878;SDS011;3478;51.462;7.338;2023-03-23T15:15:01;3.33;;;1.60;;
6878;SDS011;3478;51.462;7.338;2023-03-23T15:20:09;4.83;;;1.60;;
6878;SDS011;3478;51.462;7.338;2023-03-23T15:25:19;2.90;;;1.17;;
6878;SDS011;3478;51.462;7.338;2023-03-23T15:30:30;2.10;;;1.37;;
6878;SDS011;3478;51.462;7.338;2023-03-23T15:35:36;5.03;;;0.97;;
6878;SDS011;3478;51.462;7.338;2023-03-23T15:40:41;1.43;;;0.70;;
6878;SDS011;3478;51.462;7.338;2023-03-23T15:45:52;2.73;;;1.20;;
6878;SDS011;3478;51.462;7.338;2023-03-23T15:50:57;2.13;;;1.10;;
6878;SDS011;3478;51.462;7.338;2023-03-23T15:56:00;1.77;;;1.00;;
6878;SDS011;3478;51.462;7.338;2023-03-23T16:01:04;3.53;;;1.00;;
6878;SDS011;3478;51.462;7.338;2023-03-23T16:06:13;2.30;;;0.70;;
6878;SDS011;3478;51.462;7.338;2023-03-23T16:11:17;3.60;;;1.00;;
6878;SDS011;3478;51.462;7.338;2023-03-23T16:16:20;4.20;;;1.10;;
6878;SDS011;3478;51.462;7.338;2023-03-23T16:21:25;1.80;;;0.80;;
6878;SDS011;3478;51.462;7.338;2023-03-23T16:26:27;1.47;;;0.87;;
6878;SDS011;3478;51.462;7.338;2023-03-23T16:31:29;1.10;;;0.90;;
6878;SDS011;3478;51.462;7.338;2023-03-23T16:36:32;3.00;;;1.10;;
6878;SDS011;3478;51.462;7.338;2023-03-23T16:41:34;1.50;;;1.30;;
6878;SDS011;3478;51.462;7.338;2023-03-23T16:46:36;1.57;;;0.77;;
6878;SDS011;3478;51.462;7.338;2023-03-23T16:51:39;3.33;;;1.57;;
6878;SDS011;3478;51.462;7.338;2023-03-23T16:56:41;4.63;;;1.10;;
6878;SDS011;3478;51.462;7.338;2023-03-23T17:01:45;2.23;;;1.10;;
6878;SDS011;3478;51.462;7.338;2023-03-23T17:06:49;3.00;;;1.77;;
6878;SDS011;3478;51.462;7.338;2023-03-23T17:11:50;4.70;;;1.73;;
6878;SDS011;3478;51.462;7.338;2023-03-23T17:16:53;4.03;;;2.57;;
6878;SDS011;3478;51.462;7.338;2023-03-23T17:21:57;4.50;;;2.10;;
6878;SDS011;3478;51.462;7.338;2023-03-23T17:26:59;6.83;;;2.03;;
6878;SDS011;3478;51.462;7.338;2023-03-23T17:32:01;2.73;;;1.90;;
6878;SDS011;3478;51.462;7.338;2023-03-23T17:37:04;3.30;;;1.37;;
6878;SDS011;3478;51.462;7.338;2023-03-23T17:42:07;5.73;;;2.80;;
6878;SDS011;3478;51.462;7.338;2023-03-23T17:47:09;3.60;;;1.80;;
6878;SDS011;3478;51.462;7.338;2023-03-23T17:52:12;5.27;;;2.90;;
6878;SDS011;3478;51.462;7.338;2023-03-23T17:57:14;4.33;;;2.43;;
6878;SDS011;3478;51.462;7.338;2023-03-23T18:02:16;5.93;;;2.30;;
6878;SDS011;3478;51.462;7.338;2023-03-23T18:07:20;5.37;;;1.97;;
6878;SDS011;3478;51.462;7.338;2023-03-23T18:12:22;3.70;;;2.70;;
6878;SDS011;3478;51.462;7.338;2023-03-23T18:17:25;6.07;;;3.47;;
6878;SDS011;3478;51.462;7.338;2023-03-23T18:22:28;4.73;;;2.73;;
6878;SDS011;3478;51.462;7.338;2023-03-23T18:27:30;5.07;;;2.77;;
6878;SDS011;3478;51.462;7.338;2023-03-23T18:32:33;4.47;;;1.53;;
6878;SDS011;3478;51.462;7.338;2023-03-23T18:37:37;4.33;;;1.23;;
6878;SDS011;3478;51.462;7.338;2023-03-23T18:42:39;7.30;;;1.97;;
6878;SDS011;3478;51.462;7.338;2023-03-23T18:47:43;2.70;;;2.40;;
6878;SDS011;3478;51.462;7.338;2023-03-23T18:52:47;4.47;;;2.03;;
6878;SDS011;3478;51.462;7.338;2023-03-23T18:57:48;3.23;;;2.93;;
6878;SDS011;3478;51.462;7.338;2023-03-23T19:02:50;5.97;;;2.30;;
6878;SDS011;3478;51.462;7.338;2023-03-23T19:07:54;5.13;;;2.00;;
6878;SDS011;3478;51.462;7.338;2023-03-23T19:12:56;3.60;;;2.10;;
6878;SDS011;3478;51.462;7.338;2023-03-23T19:17:57;2.50;;;1.80;;
6878;SDS011;3478;51.462;7.338;2023-03-23T19:23:01;2.60;;;1.97;;
6878;SDS011;3478;51.462;7.338;2023-03-23T19:28:03;5.30;;;1.90;;
6878;SDS011;3478;51.462;7.338;2023-03-23T19:33:04;4.50;;;1.90;;
6878;SDS011;3478;51.462;7.338;2023-03-23T19:38:08;4.13;;;1.93;;
6878;SDS011;3478;51.462;7.338;2023-03-23T19:43:10;2.33;;;1.33;;
6878;SDS011;3478;51.462;7.338;2023-03-23T19:48:12;4.40;;;1.60;;
6878;SDS011;3478;51.462;7.338;2023-03-23T19:53:15;4.50;;;1.30;;
6878;SDS011;3478;51.462;7.338;2023-03-23T19:58:17;3.80;;;1.93;;
6878;SDS011;3478;51.462;7.338;2023-03-23T20:03:20;5.20;;;2.17;;
6878;SDS011;3478;51.462;7.338;2023-03-23T20:08:23;3.13;;;1.20;;
6878;SDS011;3478;51.462;7.338;2023-03-23T20:13:25;1.47;;;1.23;;
6878;SDS011;3478;51.462;7.338;2023-03-23T20:18:27;3.80;;;1.50;;
6878;SDS011;3478;51.462;7.338;2023-03-23T20:23:31;2.63;;;2.43;;
6878;SDS011;3478;51.462;7.338;2023-03-23T20:28:33;2.17;;;1.40;;
6878;SDS011;3478;51.462;7.338;2023-03-23T20:33:36;5.77;;;2.10;;
6878;SDS011;3478;51.462;7.338;2023-03-23T20:38:40;3.87;;;1.43;;
6878;SDS011;3478;51.462;7.338;2023-03-23T20:43:42;3.23;;;1.47;;
6878;SDS011;3478;51.462;7.338;2023-03-23T20:48:44;4.23;;;1.90;;
6878;SDS011;3478;51.462;7.338;2023-03-23T20:53:48;7.07;;;4.60;;
6878;SDS011;3478;51.462;7.338;2023-03-23T20:58:50;6.53;;;2.20;;
6878;SDS011;3478;51.462;7.338;2023-03-23T21:03:52;2.13;;;0.70;;
6878;SDS011;3478;51.462;7.338;2023-03-23T21:08:57;4.90;;;1.70;;
6878;SDS011;3478;51.462;7.338;2023-03-23T21:13:59;5.17;;;1.50;;
6878;SDS011;3478;51.462;7.338;2023-03-23T21:19:01;1.87;;;1.23;;
6878;SDS011;3478;51.462;7.338;2023-03-23T21:24:05;3.27;;;1.00;;
6878;SDS011;3478;51.462;7.338;2023-03-23T21:29:08;2.13;;;0.80;;
6878;SDS011;3478;51.462;7.338;2023-03-23T21:34:10;2.53;;;1.00;;
6878;SDS011;3478;51.462;7.338;2023-03-23T21:39:14;1.37;;;0.60;;
6878;SDS011;3478;51.462;7.338;2023-03-23T21:44:16;6.90;;;1.10;;
6878;SDS011;3478;51.462;7.338;2023-03-23T21:49:18;1.57;;;0.97;;
6878;SDS011;3478;51.462;7.338;2023-03-23T21:54:21;2.70;;;1.70;;
6878;SDS011;3478;51.462;7.338;2023-03-23T21:59:23;1.57;;;1.10;;
6878;SDS011;3478;51.462;7.338;2023-03-23T22:04:25;3.53;;;1.17;;
6878;SDS011;3478;51.462;7.338;2023-03-23T22:09:29;3.00;;;1.20;;
6878;SDS011;3478;51.462;7.338;2023-03-23T22:14:31;2.10;;;0.90;;
6878;SDS011;3478;51.462;7.338;2023-03-23T22:19:33;2.90;;;1.20;;
6878;SDS011;3478;51.462;7.338;2023-03-23T22:24:37;1.60;;;1.30;;
6878;SDS011;3478;51.462;7.338;2023-03-23T22:29:39;2.40;;;1.20;;
6878;SDS011;3478;51.462;7.338;2023-03-23T22:34:41;3.70;;;1.10;;
6878;SDS011;3478;51.462;7.338;2023-03-23T22:39:44;1.97;;;1.10;;
6878;SDS011;3478;51.462;7.338;2023-03-23T22:44:46;1.67;;;1.17;;
6878;SDS011;3478;51.462;7.338;2023-03-23T22:49:48;1.40;;;1.27;;
6878;SDS011;3478;51.462;7.338;2023-03-23T22:54:51;2.37;;;1.00;;
6878;SDS011;3478;51.462;7.338;2023-03-23T22:59:53;3.00;;;1.33;;
6878;SDS011;3478;51.462;7.338;2023-03-23T23:04:55;4.50;;;1.10;;
6878;SDS011;3478;51.462;7.338;2023-03-23T23:09:59;2.23;;;1.50;;
6878;SDS011;3478;51.462;7.338;2023-03-23T23:15:01;1.37;;;1.27;;
6878;SDS011;3478;51.462;7.338;2023-03-23T23:20:04;6.17;;;2.00;;
6878;SDS011;3478;51.462;7.338;2023-03-23T23:25:08;4.30;;;1.43;;
6878;SDS011;3478;51.462;7.338;2023-03-23T23:30:10;1.63;;;1.53;;
6878;SDS011;3478;51.462;7.338;2023-03-23T23:35:13;1.60;;;1.50;;
6878;SDS011;3478;51.462;7.338;2023-03-23T23:40:16;2.70;;;2.13;;
6878;SDS011;3478;51.462;7.338;2023-03-23T23:45:19;2.23;;;1.20;;
6878;SDS011;3478;51.462;7.338;2023-03-23T23:50:21;3.70;;;1.23;;
6878;SDS011;3478;51.462;7.338;2023-03-23T23:55:25;2.60;;;0.93;;
